createdAt,value
2023-02-04T00:00:29.245Z,40.35
2023-02-04T00:02:57.511Z,30.88
2023-02-04T00:05:25.329Z,39.33
2023-02-04T00:07:54.501Z,41.38
2023-02-04T00:10:22.380Z,29.80
2023-02-04T00:12:50.134Z,34.20
2023-02-04T00:15:17.958Z,37.67
2023-02-04T00:17:45.727Z,29.00
2023-02-04T00:20:13.942Z,34.47
2023-02-04T00:22:41.791Z,43.70
2023-02-04T00:25:11.114Z,33.22
2023-02-04T00:27:39.085Z,44.42
2023-02-04T00:30:08.620Z,30.40
2023-02-04T00:32:36.767Z,36.95
2023-02-04T00:35:04.894Z,39.03
2023-02-04T00:37:32.659Z,34.92
2023-02-04T00:40:00.442Z,39.92
2023-02-04T00:42:29.619Z,53.45
2023-02-04T00:44:57.380Z,39.45
2023-02-04T00:47:25.096Z,44.83
2023-02-04T00:49:56.038Z,44.00
2023-02-04T00:52:23.877Z,37.70
2023-02-04T00:54:51.631Z,43.45
2023-02-04T00:57:20.323Z,37.25
2023-02-04T00:59:49.397Z,37.80
2023-02-04T01:02:18.416Z,43.13
2023-02-04T01:04:46.459Z,40.33
2023-02-04T01:07:14.401Z,36.38
2023-02-04T01:09:42.162Z,39.35
2023-02-04T01:12:09.900Z,40.33
2023-02-04T01:14:37.646Z,42.47
2023-02-04T01:17:06.966Z,40.63
2023-02-04T01:19:34.751Z,33.28
2023-02-04T01:22:02.661Z,26.38
2023-02-04T01:24:30.429Z,36.95
2023-02-04T01:26:58.195Z,26.38
2023-02-04T01:29:26.069Z,50.35
2023-02-04T01:31:53.901Z,28.05
2023-02-04T01:34:23.086Z,44.92
2023-02-04T01:36:50.810Z,38.08
2023-02-04T01:39:18.749Z,38.78
2023-02-04T01:41:47.453Z,47.67
2023-02-04T01:44:15.324Z,44.42
2023-02-04T01:46:43.230Z,51.72
2023-02-04T01:49:12.199Z,43.60
2023-02-04T01:51:41.361Z,40.35
2023-02-04T01:54:11.805Z,29.38
2023-02-04T01:56:41.234Z,45.35
2023-02-04T01:59:13.434Z,30.13
2023-02-04T02:01:43.474Z,29.50
2023-02-04T02:04:13.261Z,38.55
2023-02-04T02:06:46.765Z,29.73
2023-02-04T02:09:14.518Z,31.10
2023-02-04T02:11:42.421Z,41.58
2023-02-04T02:14:10.323Z,37.15
2023-02-04T02:16:38.293Z,31.38
2023-02-04T02:19:09.016Z,29.92
2023-02-04T02:21:42.767Z,32.47
2023-02-04T02:24:27.182Z,33.90
2023-02-04T02:26:56.553Z,31.42
2023-02-04T02:29:24.862Z,46.13
2023-02-04T02:31:53.092Z,29.75
2023-02-04T02:34:20.908Z,34.45
2023-02-04T02:36:48.707Z,39.72
2023-02-04T02:39:16.531Z,37.13
2023-02-04T02:41:45.838Z,33.10
2023-02-04T02:44:15.223Z,36.78
2023-02-04T02:46:43.038Z,35.67
2023-02-04T02:49:15.642Z,37.78
2023-02-04T02:51:43.485Z,34.15
2023-02-04T02:54:22.746Z,30.98
2023-02-04T02:56:52.161Z,40.55
2023-02-04T02:59:20.777Z,32.15
2023-02-04T03:01:51.834Z,28.90
2023-02-04T03:04:21.408Z,39.90
2023-02-04T03:06:49.680Z,39.13
2023-02-04T03:09:17.775Z,41.25
2023-02-04T03:11:45.568Z,37.33
2023-02-04T03:14:14.896Z,34.25
2023-02-04T03:16:44.370Z,25.88
2023-02-04T03:19:13.569Z,39.00
2023-02-04T03:21:42.344Z,37.70
2023-02-04T03:24:10.578Z,43.38
2023-02-04T03:26:38.646Z,39.33
2023-02-04T03:29:08.206Z,36.10
2023-02-04T03:31:37.866Z,49.17
2023-02-04T03:34:05.863Z,45.20
2023-02-04T03:36:33.870Z,35.72
2023-02-04T03:39:01.982Z,32.22
2023-02-04T03:41:32.075Z,29.42
2023-02-04T03:43:59.772Z,28.92
2023-02-04T03:46:28.626Z,40.78
2023-02-04T03:48:57.823Z,32.15
2023-02-04T03:51:27.360Z,32.03
2023-02-04T03:53:55.112Z,36.67
2023-02-04T03:56:22.881Z,40.15
2023-02-04T03:58:50.895Z,37.90
2023-02-04T04:01:18.735Z,39.78
2023-02-04T04:03:46.513Z,32.88
2023-02-04T04:06:15.614Z,33.53
2023-02-04T04:08:43.495Z,40.83
2023-02-04T04:11:11.237Z,40.65
2023-02-04T04:13:38.974Z,37.65
2023-02-04T04:16:07.681Z,29.95
2023-02-04T04:18:35.848Z,37.50
2023-02-04T04:21:03.778Z,32.00
2023-02-04T04:23:32.962Z,47.42
2023-02-04T04:26:00.738Z,44.58
2023-02-04T04:28:28.488Z,34.78
2023-02-04T04:30:56.473Z,31.00
2023-02-04T04:33:24.246Z,33.20
2023-02-04T04:35:51.957Z,33.78
2023-02-04T04:38:19.694Z,34.97
2023-02-04T04:40:48.773Z,37.30
2023-02-04T04:43:16.483Z,27.58
2023-02-04T04:45:44.239Z,26.17
2023-02-04T04:48:12.058Z,42.30
2023-02-04T04:50:39.834Z,40.35
2023-02-04T04:53:11.167Z,37.00
2023-02-04T04:55:39.211Z,32.85
2023-02-04T04:58:09.368Z,33.65
2023-02-04T05:00:37.213Z,32.00
2023-02-04T05:03:05.063Z,36.38
2023-02-04T05:05:32.804Z,39.25
2023-02-04T05:08:00.590Z,35.75
2023-02-04T05:10:28.318Z,32.15
2023-02-04T05:12:56.055Z,46.30
2023-02-04T05:15:25.174Z,39.47
2023-02-04T05:17:53.632Z,41.75
2023-02-04T05:20:21.326Z,23.70
2023-02-04T05:22:49.099Z,28.13
2023-02-04T05:25:17.687Z,31.60
2023-02-04T05:27:45.599Z,33.33
2023-02-04T05:30:14.259Z,32.13
2023-02-04T05:32:43.613Z,28.70
2023-02-04T05:35:11.476Z,29.58
2023-02-04T05:37:39.239Z,36.88
2023-02-04T05:40:08.131Z,29.20
2023-02-04T05:42:35.908Z,39.55
2023-02-04T05:45:03.696Z,35.08
2023-02-04T05:47:31.460Z,32.28
2023-02-04T05:50:00.627Z,31.85
2023-02-04T05:52:28.435Z,34.63
2023-02-04T05:54:56.137Z,29.83
2023-02-04T05:57:23.888Z,30.00
2023-02-04T05:59:51.672Z,32.65
2023-02-04T06:02:19.627Z,31.85
2023-02-04T06:04:47.347Z,22.48
2023-02-04T06:07:16.506Z,30.08
2023-02-04T06:09:44.801Z,28.40
2023-02-04T06:12:12.563Z,37.53
2023-02-04T06:14:40.264Z,48.85
2023-02-04T06:17:07.964Z,33.92
2023-02-04T06:19:35.674Z,36.08
2023-02-04T06:22:06.192Z,37.53
2023-02-04T06:24:35.291Z,34.40
2023-02-04T06:27:03.009Z,32.80
2023-02-04T06:29:30.789Z,35.28
2023-02-04T06:31:58.586Z,42.45
2023-02-04T06:34:26.405Z,35.35
2023-02-04T06:36:54.174Z,36.45
2023-02-04T06:39:22.112Z,28.90
2023-02-04T06:41:51.218Z,20.35
2023-02-04T06:44:18.961Z,34.40
2023-02-04T06:46:46.928Z,28.83
2023-02-04T06:49:14.714Z,32.03
2023-02-04T06:51:42.456Z,30.63
2023-02-04T06:54:10.225Z,36.83
2023-02-04T06:56:38.025Z,47.15
2023-02-04T06:59:07.160Z,41.88
2023-02-04T07:01:34.880Z,41.67
2023-02-04T07:04:02.661Z,31.73
2023-02-04T07:06:30.371Z,38.85
2023-02-04T07:08:58.206Z,32.33
2023-02-04T07:11:25.988Z,26.10
2023-02-04T07:13:53.764Z,37.05
2023-02-04T07:16:22.922Z,33.30
2023-02-04T07:18:50.775Z,49.47
2023-02-04T07:21:18.514Z,37.95
2023-02-04T07:23:46.366Z,36.08
2023-02-04T07:26:14.146Z,28.65
2023-02-04T07:28:42.434Z,27.42
2023-02-04T07:31:10.265Z,25.52
2023-02-04T07:33:39.623Z,24.90
2023-02-04T07:36:07.954Z,38.17
2023-02-04T07:38:35.706Z,45.58
2023-02-04T07:41:03.499Z,37.75
2023-02-04T07:43:31.323Z,37.55
2023-02-04T07:45:59.111Z,35.47
2023-02-04T07:48:26.921Z,31.90
2023-02-04T07:50:56.017Z,36.70
2023-02-04T07:53:23.799Z,32.42
2023-02-04T07:55:51.508Z,36.25
2023-02-04T07:58:19.267Z,41.30
2023-02-04T08:00:47.031Z,29.13
2023-02-04T08:03:14.819Z,33.88
2023-02-04T08:05:42.602Z,28.25
2023-02-04T08:08:11.774Z,22.45
2023-02-04T08:10:39.668Z,32.47
2023-02-04T08:13:07.419Z,23.80
2023-02-04T08:15:35.181Z,30.70
2023-02-04T08:18:03.024Z,26.73
2023-02-04T08:20:31.491Z,34.92
2023-02-04T08:22:59.521Z,32.17
2023-02-04T08:25:29.729Z,34.78
2023-02-04T08:27:57.545Z,29.77
2023-02-04T08:30:25.491Z,31.42
2023-02-04T08:32:53.400Z,33.67
2023-02-04T08:35:21.227Z,45.03
2023-02-04T08:37:49.057Z,54.97
2023-02-04T08:40:17.254Z,45.72
2023-02-04T08:42:46.905Z,36.50
2023-02-04T08:45:14.703Z,35.92
2023-02-04T08:47:42.445Z,32.17
2023-02-04T08:50:11.471Z,49.13
2023-02-04T08:52:39.243Z,57.35
2023-02-04T08:55:07.751Z,44.03
2023-02-04T08:57:35.930Z,34.83
2023-02-04T09:00:05.816Z,31.92
2023-02-04T09:02:33.604Z,39.55
2023-02-04T09:05:01.337Z,39.00
2023-02-04T09:07:29.116Z,32.97
2023-02-04T09:09:56.888Z,27.10
2023-02-04T09:12:24.650Z,25.75
2023-02-04T09:14:52.433Z,29.50
2023-02-04T09:17:21.530Z,28.52
2023-02-04T09:19:49.333Z,34.28
2023-02-04T09:22:17.190Z,35.92
2023-02-04T09:24:45.013Z,33.38
2023-02-04T09:27:12.776Z,42.72
2023-02-04T09:29:40.570Z,39.95
2023-02-04T09:32:08.339Z,35.88
2023-02-04T09:34:37.502Z,31.00
2023-02-04T09:37:05.387Z,30.67
2023-02-04T09:39:33.125Z,32.10
2023-02-04T09:42:00.950Z,33.33
2023-02-04T09:44:29.729Z,39.10
2023-02-04T09:47:00.374Z,46.85
2023-02-04T09:49:29.155Z,33.25
2023-02-04T09:51:58.323Z,45.63
2023-02-04T09:54:26.532Z,39.30
2023-02-04T09:56:54.369Z,34.88
2023-02-04T09:59:24.471Z,38.75
2023-02-04T10:01:56.415Z,31.25
2023-02-04T10:04:25.093Z,47.38
2023-02-04T10:06:53.038Z,33.72
2023-02-04T10:09:22.185Z,41.53
2023-02-04T10:11:50.054Z,39.08
2023-02-04T10:14:22.213Z,39.13
2023-02-04T10:16:57.204Z,39.75
2023-02-04T10:19:27.980Z,34.28
2023-02-04T10:21:56.072Z,67.10
2023-02-04T10:24:28.037Z,34.17
2023-02-04T10:26:55.889Z,32.80
2023-02-04T10:29:25.897Z,51.45
2023-02-04T10:31:54.680Z,37.67
2023-02-04T10:34:24.639Z,47.58
2023-02-04T10:36:54.540Z,33.40
2023-02-04T10:39:26.043Z,38.55
2023-02-04T10:41:55.675Z,40.28
2023-02-04T10:44:28.127Z,39.85
2023-02-04T10:47:02.817Z,35.15
2023-02-04T10:49:31.370Z,46.78
2023-02-04T10:51:59.205Z,36.60
2023-02-04T10:54:35.720Z,30.30
2023-02-04T10:57:13.908Z,35.25
2023-02-04T10:59:42.565Z,36.08
2023-02-04T11:02:33.756Z,33.28
2023-02-04T11:05:02.135Z,28.60
2023-02-04T11:07:30.680Z,40.00
2023-02-04T11:09:59.883Z,40.38
2023-02-04T11:12:41.091Z,32.60
2023-02-04T11:15:44.428Z,29.55
2023-02-04T11:18:14.645Z,42.08
2023-02-04T11:20:42.520Z,33.65
2023-02-04T11:23:18.680Z,33.72
2023-02-04T11:25:48.764Z,36.75
2023-02-04T11:28:17.788Z,34.83
2023-02-04T11:30:45.621Z,34.70
2023-02-04T11:33:26.323Z,31.25
2023-02-04T11:36:04.583Z,27.40
2023-02-04T11:38:34.154Z,27.35
2023-02-04T11:41:03.605Z,29.67
2023-02-04T11:43:35.816Z,32.80
2023-02-04T11:46:06.320Z,26.48
2023-02-04T11:48:37.235Z,33.50
2023-02-04T11:51:13.018Z,36.30
2023-02-04T11:53:40.903Z,29.15
2023-02-04T11:56:18.251Z,35.63
2023-02-04T11:58:46.090Z,26.88
2023-02-04T12:01:21.123Z,30.48
2023-02-04T12:03:51.241Z,35.15
2023-02-04T12:06:23.408Z,34.45
2023-02-04T12:08:51.549Z,30.63
2023-02-04T12:11:30.499Z,29.02
2023-02-04T12:14:00.704Z,46.97
2023-02-04T12:16:28.562Z,35.92
2023-02-04T12:18:56.391Z,30.17
2023-02-04T12:21:24.161Z,32.05
2023-02-04T12:23:51.908Z,37.55
2023-02-04T12:26:19.631Z,33.38
2023-02-04T12:28:48.771Z,33.38
2023-02-04T12:31:16.651Z,29.10
2023-02-04T12:33:44.445Z,32.00
2023-02-04T12:36:12.128Z,37.88
2023-02-04T12:38:40.623Z,35.67
2023-02-04T12:41:08.525Z,28.60
2023-02-04T12:43:36.260Z,29.98
2023-02-04T12:46:05.876Z,33.42
2023-02-04T12:48:33.648Z,31.50
2023-02-04T12:51:01.472Z,25.23
2023-02-04T12:53:29.184Z,30.05
2023-02-04T12:55:57.854Z,41.50
2023-02-04T12:58:25.795Z,35.88
2023-02-04T13:00:53.538Z,38.72
2023-02-04T13:03:23.720Z,37.60
2023-02-04T13:05:51.454Z,29.15
2023-02-04T13:08:19.173Z,32.42
2023-02-04T13:10:51.764Z,31.67
2023-02-04T13:13:20.300Z,36.92
2023-02-04T13:15:48.364Z,31.45
2023-02-04T13:18:17.505Z,31.65
2023-02-04T13:20:47.025Z,39.85
2023-02-04T13:23:14.906Z,39.00
2023-02-04T13:25:43.824Z,36.13
2023-02-04T13:28:11.638Z,27.30
2023-02-04T13:30:39.515Z,31.45
2023-02-04T13:33:07.263Z,30.50
2023-02-04T13:35:35.188Z,21.88
2023-02-04T13:38:04.390Z,28.95
2023-02-04T13:40:32.116Z,32.30
2023-02-04T13:42:59.908Z,35.58
2023-02-04T13:45:27.778Z,24.90
2023-02-04T13:47:55.601Z,24.15
2023-02-04T13:50:23.372Z,34.22
2023-02-04T13:52:51.257Z,37.33
2023-02-04T13:55:20.397Z,26.73
2023-02-04T13:57:48.130Z,25.60
2023-02-04T14:00:16.512Z,31.88
2023-02-04T14:02:44.261Z,27.23
2023-02-04T14:05:12.032Z,28.25
2023-02-04T14:07:39.794Z,31.08
2023-02-04T14:10:08.597Z,30.00
2023-02-04T14:12:37.775Z,25.17
2023-02-04T14:15:06.023Z,28.65
2023-02-04T14:17:33.790Z,28.20
2023-02-04T14:20:01.546Z,30.73
2023-02-04T14:22:29.294Z,32.25
2023-02-04T14:24:57.065Z,27.10
2023-02-04T14:27:24.887Z,22.05
2023-02-04T14:29:54.054Z,29.80
2023-02-04T14:32:21.952Z,22.73
2023-02-04T14:34:49.701Z,26.70
2023-02-04T14:37:17.393Z,28.63
2023-02-04T14:39:45.139Z,28.73
2023-02-04T14:42:12.879Z,33.75
2023-02-04T14:44:40.602Z,33.28
2023-02-04T14:47:09.712Z,26.52
2023-02-04T14:49:38.109Z,31.45
2023-02-04T14:52:06.335Z,25.70
2023-02-04T14:54:34.149Z,25.40
2023-02-04T14:57:02.113Z,33.88
2023-02-04T14:59:29.837Z,31.27
2023-02-04T15:01:57.658Z,28.30
2023-02-04T15:04:26.855Z,32.20
2023-02-04T15:06:54.562Z,30.38
2023-02-04T15:09:22.398Z,29.90
2023-02-04T15:11:50.149Z,32.47
2023-02-04T15:14:17.962Z,22.45
2023-02-04T15:16:48.524Z,30.88
2023-02-04T15:19:17.677Z,29.65
2023-02-04T15:21:46.856Z,24.20
2023-02-04T15:24:14.687Z,29.25
2023-02-04T15:26:42.488Z,30.13
2023-02-04T15:29:10.337Z,29.58
2023-02-04T15:31:38.195Z,33.97
2023-02-04T15:34:06.280Z,26.98
2023-02-04T15:36:34.072Z,33.63
2023-02-04T15:39:03.218Z,27.92
2023-02-04T15:41:31.019Z,27.95
2023-02-04T15:43:58.806Z,26.88
2023-02-04T15:46:27.389Z,34.65
2023-02-04T15:48:55.238Z,35.25
2023-02-04T15:51:23.030Z,28.85
2023-02-04T15:53:50.826Z,25.75
2023-02-04T15:56:20.216Z,27.15
2023-02-04T15:58:48.008Z,29.27
2023-02-04T16:01:15.834Z,26.02
2023-02-04T16:03:44.767Z,26.40
2023-02-04T16:06:12.521Z,35.17
2023-02-04T16:08:40.301Z,32.83
2023-02-04T16:11:08.121Z,26.92
2023-02-04T16:13:37.541Z,25.70
2023-02-04T16:16:05.741Z,27.88
2023-02-04T16:18:33.535Z,33.90
2023-02-04T16:21:01.373Z,25.70
2023-02-04T16:23:29.142Z,35.22
2023-02-04T16:25:56.928Z,28.35
2023-02-04T16:28:25.376Z,28.67
2023-02-04T16:30:54.748Z,30.95
2023-02-04T16:33:22.887Z,34.45
2023-02-04T16:35:59.255Z,30.13
2023-02-04T16:38:27.841Z,28.98
2023-02-04T16:40:56.026Z,26.13
2023-02-04T16:43:24.524Z,28.00
2023-02-04T16:45:52.667Z,38.03
2023-02-04T16:48:21.746Z,32.05
2023-02-04T16:50:49.536Z,25.83
2023-02-04T16:53:17.270Z,25.67
2023-02-04T16:55:45.680Z,53.63
2023-02-04T16:58:14.259Z,37.20
2023-02-04T17:00:44.064Z,29.85
2023-02-04T17:03:12.776Z,32.40
2023-02-04T17:05:42.961Z,26.75
2023-02-04T17:08:13.128Z,25.88
2023-02-04T17:10:58.694Z,30.50
2023-02-04T17:13:26.665Z,30.73
2023-02-04T17:16:00.445Z,25.70
2023-02-04T17:18:29.519Z,28.38
2023-02-04T17:20:59.449Z,37.55
2023-02-04T17:23:28.382Z,28.67
2023-02-04T17:25:56.543Z,33.67
2023-02-04T17:28:24.653Z,27.35
2023-02-04T17:30:52.487Z,34.58
2023-02-04T17:33:20.652Z,31.20
2023-02-04T17:35:48.716Z,33.53
2023-02-04T17:38:17.933Z,25.38
2023-02-04T17:40:46.603Z,30.67
2023-02-04T17:43:14.407Z,24.48
2023-02-04T17:45:42.117Z,28.17
2023-02-04T17:48:09.948Z,34.75
2023-02-04T17:50:40.146Z,36.78
2023-02-04T17:53:09.224Z,44.38
2023-02-04T17:55:40.090Z,34.95
2023-02-04T17:58:16.260Z,31.70
2023-02-04T18:00:46.658Z,33.30
2023-02-04T18:03:15.504Z,30.35
2023-02-04T18:05:46.928Z,35.60
2023-02-04T18:08:16.886Z,28.75
2023-02-04T18:10:47.172Z,32.03
2023-02-04T18:13:17.311Z,34.40
2023-02-04T18:15:48.199Z,42.22
2023-02-04T18:18:27.144Z,37.65
2023-02-04T18:20:59.791Z,26.95
2023-02-04T18:23:29.379Z,32.92
2023-02-04T18:26:03.168Z,30.23
2023-02-04T18:31:01.793Z,31.60
2023-02-04T18:33:34.621Z,29.90
2023-02-04T18:36:02.974Z,30.67
2023-02-04T18:38:34.393Z,32.42
2023-02-04T18:41:27.614Z,44.00
2023-02-04T18:44:02.463Z,30.13
2023-02-04T18:46:33.200Z,37.35
2023-02-04T18:49:07.401Z,34.15
2023-02-04T18:51:40.252Z,34.15
2023-02-04T18:54:36.529Z,30.30
2023-02-04T18:57:29.139Z,34.17
2023-02-04T19:00:26.179Z,32.08
2023-02-04T19:02:56.675Z,34.17
2023-02-04T19:05:29.933Z,33.95
2023-02-04T19:08:18.581Z,35.67
2023-02-04T19:10:46.332Z,36.08
2023-02-04T19:13:20.039Z,37.67
2023-02-04T19:15:59.698Z,37.95
2023-02-04T19:18:29.733Z,38.03
2023-02-04T19:21:09.533Z,37.58
2023-02-04T19:23:38.965Z,41.13
2023-02-04T19:26:37.894Z,38.17
2023-02-04T19:29:41.118Z,37.72
2023-02-04T19:32:35.336Z,45.35
2023-02-04T19:35:17.957Z,45.10
2023-02-04T19:37:48.875Z,62.33
2023-02-04T19:40:30.255Z,49.53
2023-02-04T19:43:05.287Z,56.15
2023-02-04T19:45:35.438Z,51.85
2023-02-04T19:48:14.754Z,56.20
2023-02-04T19:50:42.522Z,50.17
2023-02-04T19:53:16.652Z,45.03
2023-02-04T19:55:46.073Z,46.95
2023-02-04T19:58:18.264Z,48.33
2023-02-04T20:00:57.503Z,52.10
2023-02-04T20:03:41.553Z,67.25
2023-02-04T20:06:27.319Z,50.22
2023-02-04T20:09:03.572Z,43.53
2023-02-04T20:11:53.731Z,43.63
2023-02-04T20:14:27.667Z,44.97
2023-02-04T20:16:58.519Z,51.10
2023-02-04T20:19:37.882Z,46.00
2023-02-04T20:22:39.110Z,52.85
2023-02-04T20:25:46.889Z,56.47
2023-02-04T20:28:31.040Z,41.88
2023-02-04T20:33:32.896Z,51.45
2023-02-04T20:36:34.692Z,45.33
2023-02-04T20:39:24.631Z,54.92
2023-02-04T20:41:52.423Z,53.00
2023-02-04T20:44:27.246Z,52.80
2023-02-04T20:47:03.234Z,53.00
2023-02-04T20:49:41.263Z,52.63
2023-02-04T20:52:48.603Z,53.17
2023-02-04T20:55:25.191Z,56.58
2023-02-04T20:57:53.852Z,56.97
2023-02-04T21:00:30.333Z,58.72
2023-02-04T21:03:08.562Z,68.63
2023-02-04T21:05:37.670Z,66.55
2023-02-04T21:08:23.124Z,57.70
2023-02-04T21:10:50.838Z,48.42
2023-02-04T21:13:18.612Z,47.72
2023-02-04T21:15:46.492Z,48.67
2023-02-04T21:18:14.331Z,49.35
2023-02-04T21:20:43.443Z,55.05
2023-02-04T21:23:11.258Z,42.45
2023-02-04T21:25:38.974Z,48.60
2023-02-04T21:28:07.135Z,50.22
2023-02-04T21:30:35.006Z,41.63
2023-02-04T21:33:03.351Z,47.33
2023-02-04T21:35:31.311Z,44.00
2023-02-04T21:38:04.063Z,41.10
2023-02-04T21:40:32.594Z,42.35
2023-02-04T21:43:00.483Z,42.90
2023-02-04T21:45:28.289Z,42.90
2023-02-04T21:47:56.075Z,45.15
2023-02-04T21:50:23.840Z,51.30
2023-02-04T21:52:51.690Z,51.97
2023-02-04T21:55:22.455Z,42.88
2023-02-04T21:57:51.123Z,44.33
2023-02-04T22:00:19.973Z,47.78
2023-02-04T22:02:47.664Z,42.92
2023-02-04T22:05:15.408Z,48.33
2023-02-04T22:07:43.206Z,41.97
2023-02-04T22:10:13.018Z,39.55
2023-02-04T22:12:42.308Z,45.97
2023-02-04T22:15:21.129Z,44.85
2023-02-04T22:17:49.307Z,43.60
2023-02-04T22:20:17.506Z,42.55
2023-02-04T22:22:46.191Z,40.05
2023-02-04T22:25:16.038Z,36.90
2023-02-04T22:27:45.343Z,38.13
2023-02-04T22:30:15.337Z,40.78
2023-02-04T22:32:43.121Z,32.80
2023-02-04T22:35:12.168Z,36.95
2023-02-04T22:37:40.954Z,34.70
2023-02-04T22:40:11.103Z,33.78
2023-02-04T22:42:39.124Z,35.10
2023-02-04T22:45:10.307Z,34.17
2023-02-04T22:47:39.163Z,30.50
2023-02-04T22:50:07.588Z,26.50
2023-02-04T22:52:35.311Z,27.95
2023-02-04T22:55:03.160Z,27.45
2023-02-04T22:57:30.879Z,30.80
2023-02-04T22:59:59.167Z,33.35
2023-02-04T23:02:28.280Z,35.53
2023-02-04T23:04:56.026Z,31.40
2023-02-04T23:07:23.876Z,34.45
2023-02-04T23:09:51.882Z,32.22
2023-02-04T23:12:19.624Z,32.00
2023-02-04T23:14:49.568Z,29.80
2023-02-04T23:17:18.765Z,29.27
2023-02-04T23:19:47.882Z,35.47
2023-02-04T23:22:16.531Z,38.20
2023-02-04T23:24:44.863Z,30.83
2023-02-04T23:27:12.836Z,29.65
2023-02-04T23:29:41.445Z,32.20
2023-02-04T23:32:09.829Z,30.60
2023-02-04T23:34:37.625Z,34.40
2023-02-04T23:37:06.849Z,26.55
2023-02-04T23:39:34.646Z,28.48
2023-02-04T23:42:02.466Z,26.50
2023-02-04T23:44:30.162Z,31.42
2023-02-04T23:46:57.891Z,33.83
2023-02-04T23:49:25.820Z,31.63
2023-02-04T23:51:53.630Z,24.00
2023-02-04T23:54:23.650Z,27.20
2023-02-04T23:56:51.803Z,30.05
2023-02-04T23:59:19.829Z,30.63
